createdAt,value
2018-05-08T00:00:10.688Z,12.25
2018-05-08T00:01:10.608Z,12.28
2018-05-08T00:03:03.470Z,12.29
2018-05-08T00:04:03.346Z,12.29
2018-05-08T00:05:56.212Z,12.30
2018-05-08T00:06:56.092Z,12.28
2018-05-08T00:08:48.986Z,12.32
2018-05-08T00:09:48.841Z,12.29
2018-05-08T00:11:41.799Z,12.25
2018-05-08T00:12:41.699Z,12.14
2018-05-08T00:14:34.578Z,12.32
2018-05-08T00:15:34.451Z,12.22
2018-05-08T00:17:27.327Z,12.17
2018-05-08T00:18:27.193Z,12.15
2018-05-08T00:20:20.070Z,12.15
2018-05-08T00:21:19.951Z,12.25
2018-05-08T00:23:12.818Z,12.15
2018-05-08T00:24:12.704Z,12.11
2018-05-08T00:26:05.648Z,12.18
2018-05-08T00:27:05.560Z,12.13
2018-05-08T00:28:58.410Z,12.05
2018-05-08T00:29:58.298Z,12.04
2018-05-08T00:31:51.142Z,12.14
2018-05-08T00:32:51.042Z,12.14
2018-05-08T00:34:43.912Z,12.26
2018-05-08T00:35:43.799Z,12.17
2018-05-08T00:37:36.668Z,12.33
2018-05-08T00:38:36.545Z,12.28
2018-05-08T00:40:29.402Z,12.33
2018-05-08T00:41:29.293Z,12.35
2018-05-08T00:43:22.146Z,12.46
2018-05-08T00:44:22.112Z,12.33
2018-05-08T00:46:14.897Z,12.36
2018-05-08T00:47:14.795Z,12.35
2018-05-08T00:49:07.674Z,12.32
2018-05-08T00:50:07.538Z,12.36
2018-05-08T00:52:00.393Z,12.15
2018-05-08T00:53:00.302Z,12.13
2018-05-08T00:54:53.163Z,12.10
2018-05-08T00:55:53.047Z,12.18
2018-05-08T00:57:45.880Z,12.14
2018-05-08T00:58:45.785Z,12.13
2018-05-08T01:00:38.650Z,12.18
2018-05-08T01:01:38.542Z,12.14
2018-05-08T01:03:31.382Z,12.04
2018-05-08T01:04:31.306Z,12.10
2018-05-08T01:06:24.281Z,12.04
2018-05-08T01:07:24.161Z,11.93
2018-05-08T01:09:16.987Z,11.91
2018-05-08T01:10:16.890Z,11.88
2018-05-08T01:12:09.753Z,11.82
2018-05-08T01:13:09.658Z,11.80
2018-05-08T01:15:03.006Z,11.85
2018-05-08T01:16:02.958Z,11.80
2018-05-08T01:17:55.787Z,11.77
2018-05-08T01:18:55.666Z,11.77
2018-05-08T01:20:48.504Z,11.74
2018-05-08T01:21:48.406Z,11.61
2018-05-08T01:23:41.262Z,11.66
2018-05-08T01:24:41.150Z,11.77
2018-05-08T01:26:34.094Z,11.84
2018-05-08T01:27:34.011Z,11.82
2018-05-08T01:29:26.856Z,11.89
2018-05-08T01:30:26.787Z,12.00
2018-05-08T01:32:19.699Z,11.97
2018-05-08T01:33:19.623Z,11.99
2018-05-08T01:35:12.486Z,12.07
2018-05-08T01:36:12.353Z,12.00
2018-05-08T01:38:05.204Z,12.07
2018-05-08T01:39:05.120Z,12.03
2018-05-08T01:40:57.951Z,12.10
2018-05-08T01:41:57.865Z,12.05
2018-05-08T01:43:50.723Z,12.11
2018-05-08T01:44:50.600Z,12.10
2018-05-08T01:46:43.351Z,12.04
2018-05-08T01:47:43.248Z,12.07
2018-05-08T01:49:36.105Z,12.08
2018-05-08T01:50:36.000Z,12.08
2018-05-08T01:52:28.971Z,11.93
2018-05-08T01:53:28.850Z,11.93
2018-05-08T01:55:21.704Z,11.93
2018-05-08T01:56:21.604Z,11.91
2018-05-08T01:58:14.858Z,11.91
2018-05-08T01:59:14.787Z,11.91
2018-05-08T02:01:07.629Z,12.07
2018-05-08T02:02:07.515Z,11.89
2018-05-08T02:04:00.364Z,11.79
2018-05-08T02:05:00.331Z,11.96
2018-05-08T02:06:53.121Z,12.10
2018-05-08T02:07:53.027Z,12.10
2018-05-08T02:09:46.357Z,12.03
2018-05-08T02:10:45.758Z,12.05
2018-05-08T02:12:38.650Z,12.04
2018-05-08T02:13:38.504Z,12.05
2018-05-08T02:15:31.356Z,11.89
2018-05-08T02:16:31.260Z,11.91
2018-05-08T02:18:24.126Z,11.91
2018-05-08T02:19:24.005Z,11.91
2018-05-08T02:21:16.862Z,12.03
2018-05-08T02:22:16.757Z,11.96
2018-05-08T02:24:09.625Z,12.04
2018-05-08T02:25:09.512Z,12.21
2018-05-08T02:27:02.398Z,12.59
2018-05-08T02:28:02.256Z,12.62
2018-05-08T02:29:55.123Z,12.61
2018-05-08T02:30:55.002Z,12.66
2018-05-08T02:32:47.982Z,12.65
2018-05-08T02:33:47.876Z,12.55
2018-05-08T02:35:40.705Z,12.50
2018-05-08T02:36:40.630Z,12.33
2018-05-08T02:38:33.549Z,12.29
2018-05-08T02:39:33.364Z,12.23
2018-05-08T02:41:26.221Z,12.08
2018-05-08T02:42:26.120Z,12.08
2018-05-08T02:44:18.977Z,12.10
2018-05-08T02:45:18.862Z,12.07
2018-05-08T02:47:11.724Z,12.05
2018-05-08T02:48:11.655Z,11.91
2018-05-08T02:50:04.473Z,11.84
2018-05-08T02:51:04.389Z,11.88
2018-05-08T02:52:57.196Z,11.84
2018-05-08T02:53:57.103Z,11.69
2018-05-08T02:55:49.966Z,11.71
2018-05-08T02:56:49.848Z,11.66
2018-05-08T02:58:42.699Z,11.73
2018-05-08T02:59:42.612Z,11.73
2018-05-08T03:01:35.456Z,11.71
2018-05-08T03:02:35.348Z,11.69
2018-05-08T03:04:28.241Z,11.61
2018-05-08T03:05:28.102Z,11.55
2018-05-08T03:07:21.457Z,11.51
2018-05-08T03:08:20.873Z,11.51
2018-05-08T03:10:14.243Z,11.51
2018-05-08T03:11:14.126Z,11.43
2018-05-08T03:13:06.999Z,11.43
2018-05-08T03:14:06.859Z,11.43
2018-05-08T03:16:00.233Z,11.33
2018-05-08T03:17:00.120Z,11.33
2018-05-08T03:18:52.981Z,11.28
2018-05-08T03:19:52.875Z,11.19
2018-05-08T03:21:45.758Z,11.11
2018-05-08T03:22:45.675Z,11.11
2018-05-08T03:24:38.476Z,11.12
2018-05-08T03:25:38.385Z,11.09
2018-05-08T03:27:31.254Z,11.05
2018-05-08T03:28:31.124Z,10.97
2018-05-08T03:30:23.971Z,10.94
2018-05-08T03:31:23.913Z,11.00
2018-05-08T03:33:16.726Z,11.03
2018-05-08T03:34:16.626Z,11.01
2018-05-08T03:36:09.470Z,10.98
2018-05-08T03:37:09.365Z,11.00
2018-05-08T03:39:02.254Z,10.87
2018-05-08T03:40:02.117Z,10.97
2018-05-08T03:41:55.006Z,10.91
2018-05-08T03:42:54.873Z,10.85
2018-05-08T03:44:47.724Z,10.87
2018-05-08T03:45:47.859Z,10.91
2018-05-08T03:47:40.563Z,10.83
2018-05-08T03:48:40.367Z,10.87
2018-05-08T03:50:33.219Z,10.80
2018-05-08T03:51:33.113Z,10.95
2018-05-08T03:53:25.979Z,10.85
2018-05-08T03:54:25.865Z,10.93
2018-05-08T03:56:18.763Z,10.85
2018-05-08T03:57:18.719Z,10.73
2018-05-08T03:59:11.487Z,10.87
2018-05-08T04:00:11.366Z,10.86
2018-05-08T04:02:05.829Z,10.79
2018-05-08T04:03:05.205Z,10.87
2018-05-08T04:04:58.019Z,10.78
2018-05-08T04:05:57.890Z,10.70
2018-05-08T04:07:50.638Z,10.64
2018-05-08T04:08:50.568Z,10.61
2018-05-08T04:10:43.483Z,10.54
2018-05-08T04:11:43.300Z,10.57
2018-05-08T04:13:36.174Z,10.46
2018-05-08T04:14:36.064Z,10.58
2018-05-08T04:16:28.816Z,10.43
2018-05-08T04:17:28.692Z,10.43
2018-05-08T04:19:21.447Z,10.31
2018-05-08T04:20:21.368Z,10.35
2018-05-08T04:22:14.181Z,10.39
2018-05-08T04:23:14.082Z,10.41
2018-05-08T04:25:06.859Z,10.41
2018-05-08T04:26:06.736Z,10.36
2018-05-08T04:27:59.986Z,10.39
2018-05-08T04:28:59.929Z,10.39
2018-05-08T04:30:52.679Z,10.35
2018-05-08T04:31:52.532Z,10.34
2018-05-08T04:33:45.893Z,10.34
2018-05-08T04:34:45.814Z,10.42
2018-05-08T04:36:38.630Z,10.34
2018-05-08T04:37:38.438Z,10.35
2018-05-08T04:39:32.335Z,10.31
2018-05-08T04:40:32.240Z,10.27
2018-05-08T04:42:24.982Z,10.26
2018-05-08T04:43:24.886Z,10.38
2018-05-08T04:45:18.903Z,10.31
2018-05-08T04:46:18.634Z,10.36
2018-05-08T04:48:11.493Z,10.39
2018-05-08T04:49:11.515Z,10.42
2018-05-08T04:51:04.288Z,10.36
2018-05-08T04:52:04.252Z,10.42
2018-05-08T04:53:57.252Z,10.46
2018-05-08T04:54:56.975Z,10.48
2018-05-08T04:56:49.649Z,10.43
2018-05-08T04:57:49.537Z,10.43
2018-05-08T04:59:42.285Z,10.52
2018-05-08T05:00:42.245Z,10.46
2018-05-08T05:02:35.120Z,10.49
2018-05-08T05:03:34.929Z,10.48
2018-05-08T05:05:28.471Z,10.48
2018-05-08T05:06:27.675Z,10.45
2018-05-08T05:08:20.453Z,10.43
2018-05-08T05:09:20.335Z,10.43
2018-05-08T05:11:13.197Z,10.42
2018-05-08T05:12:13.075Z,10.38
2018-05-08T05:14:05.848Z,10.49
2018-05-08T05:15:05.747Z,10.58
2018-05-08T05:16:58.597Z,10.65
2018-05-08T05:17:58.570Z,10.72
2018-05-08T05:19:51.224Z,10.72
2018-05-08T05:20:51.128Z,10.75
2018-05-08T05:22:43.895Z,10.75
2018-05-08T05:23:43.794Z,10.68
2018-05-08T05:25:36.616Z,10.85
2018-05-08T05:26:36.521Z,10.85
2018-05-08T05:28:29.285Z,10.79
2018-05-08T05:29:29.175Z,10.80
2018-05-08T05:31:22.013Z,10.83
2018-05-08T05:32:21.939Z,10.91
2018-05-08T05:34:14.666Z,11.00
2018-05-08T05:35:14.569Z,11.05
2018-05-08T05:37:07.378Z,11.11
2018-05-08T05:38:07.280Z,11.19
2018-05-08T05:40:00.122Z,11.40
2018-05-08T05:40:59.956Z,11.52
2018-05-08T05:42:52.821Z,11.59
2018-05-08T05:43:52.720Z,11.64
2018-05-08T05:45:45.743Z,11.76
2018-05-08T05:46:45.460Z,11.79
2018-05-08T05:48:38.332Z,12.07
2018-05-08T05:49:38.208Z,12.07
2018-05-08T05:51:30.965Z,12.22
2018-05-08T05:52:31.002Z,12.36
2018-05-08T05:54:23.725Z,12.36
2018-05-08T05:55:23.632Z,12.51
2018-05-08T05:57:16.461Z,12.68
2018-05-08T05:58:16.353Z,12.73
2018-05-08T06:00:09.211Z,12.93
2018-05-08T06:01:09.100Z,12.98
2018-05-08T06:03:01.954Z,13.11
2018-05-08T06:04:01.859Z,13.38
2018-05-08T06:05:54.702Z,13.53
2018-05-08T06:06:54.625Z,13.64
2018-05-08T06:08:48.385Z,13.76
2018-05-08T06:09:48.382Z,13.93
2018-05-08T06:11:41.241Z,13.86
2018-05-08T06:12:41.257Z,13.90
2018-05-08T06:14:33.875Z,14.03
2018-05-08T06:15:33.768Z,13.96
2018-05-08T06:17:26.625Z,14.16
2018-05-08T06:18:26.521Z,14.12
2018-05-08T06:20:19.326Z,14.27
2018-05-08T06:21:19.230Z,14.26
2018-05-08T06:23:12.055Z,14.38
2018-05-08T06:24:11.946Z,14.45
2018-05-08T06:26:05.291Z,14.45
2018-05-08T06:27:05.188Z,14.52
2018-05-08T06:28:58.123Z,14.59
2018-05-08T06:29:58.019Z,14.61
2018-05-08T06:31:51.358Z,14.77
2018-05-08T06:32:50.680Z,14.85
2018-05-08T06:34:43.579Z,14.97
2018-05-08T06:35:43.466Z,15.03
2018-05-08T06:37:36.332Z,15.14
2018-05-08T06:38:36.236Z,15.22
2018-05-08T06:40:29.100Z,15.43
2018-05-08T06:41:28.959Z,15.41
2018-05-08T06:43:21.998Z,15.45
2018-05-08T06:44:21.815Z,15.56
2018-05-08T06:46:15.728Z,15.72
2018-05-08T06:47:15.582Z,15.77
2018-05-08T06:49:08.626Z,15.83
2018-05-08T06:50:08.311Z,15.80
2018-05-08T06:52:01.992Z,15.98
2018-05-08T06:53:02.018Z,15.98
2018-05-08T06:54:54.770Z,16.16
2018-05-08T06:55:54.649Z,16.09
2018-05-08T06:57:50.721Z,16.08
2018-05-08T06:58:50.796Z,16.13
2018-05-08T07:00:46.545Z,16.21
2018-05-08T07:01:47.173Z,16.25
2018-05-08T07:03:40.086Z,16.40
2018-05-08T07:04:40.117Z,16.36
2018-05-08T07:06:32.859Z,16.61
2018-05-08T07:07:32.694Z,16.67
2018-05-08T07:09:25.549Z,16.76
2018-05-08T07:10:25.463Z,16.79
2018-05-08T07:12:18.392Z,16.80
2018-05-08T07:13:18.215Z,16.94
2018-05-08T07:15:12.087Z,16.99
2018-05-08T07:16:12.259Z,17.06
2018-05-08T07:18:04.907Z,17.17
2018-05-08T07:19:04.726Z,17.27
2018-05-08T07:20:57.788Z,17.37
2018-05-08T07:21:57.571Z,17.22
2018-05-08T07:23:50.463Z,17.43
2018-05-08T07:24:50.375Z,17.46
2018-05-08T07:26:43.622Z,17.66
2018-05-08T07:27:43.524Z,17.71
2018-05-08T07:29:36.468Z,17.87
2018-05-08T07:30:36.276Z,17.84
2018-05-08T07:32:29.127Z,17.94
2018-05-08T07:33:29.007Z,18.02
2018-05-08T07:35:21.892Z,18.13
2018-05-08T07:36:21.772Z,18.05
2018-05-08T07:38:16.227Z,18.20
2018-05-08T07:39:15.925Z,18.26
2018-05-08T07:41:09.850Z,18.43
2018-05-08T07:42:09.687Z,18.54
2018-05-08T07:44:03.088Z,18.56
2018-05-08T07:45:02.472Z,18.58
2018-05-08T07:46:56.889Z,18.48
2018-05-08T07:47:56.612Z,18.36
2018-05-08T07:49:49.599Z,18.43
2018-05-08T07:50:49.407Z,18.51
2018-05-08T07:52:42.767Z,18.36
2018-05-08T07:53:42.129Z,18.39
2018-05-08T07:55:38.264Z,18.34
2018-05-08T07:56:38.232Z,18.45
2018-05-08T07:58:32.627Z,18.54
2018-05-08T07:59:32.558Z,18.61
2018-05-08T08:01:25.940Z,18.61
2018-05-08T08:02:25.301Z,18.56
2018-05-08T08:04:18.112Z,18.61
2018-05-08T08:05:18.059Z,18.78
2018-05-08T08:07:10.804Z,18.81
2018-05-08T08:08:10.675Z,18.85
2018-05-08T08:10:04.112Z,18.89
2018-05-08T08:11:03.428Z,19.04
2018-05-08T08:12:56.284Z,19.31
2018-05-08T08:13:56.186Z,19.38
2018-05-08T08:15:49.038Z,19.52
2018-05-08T08:16:48.917Z,19.53
2018-05-08T08:18:41.779Z,19.59
2018-05-08T08:19:41.672Z,19.62
2018-05-08T08:21:34.531Z,19.77
2018-05-08T08:22:34.438Z,19.78
2018-05-08T08:24:27.278Z,19.94
2018-05-08T08:25:27.178Z,19.93
2018-05-08T08:27:20.027Z,20.07
2018-05-08T08:28:19.915Z,20.19
2018-05-08T08:30:12.764Z,20.26
2018-05-08T08:31:12.681Z,20.32
2018-05-08T08:33:05.526Z,20.44
2018-05-08T08:34:05.444Z,20.37
2018-05-08T08:35:58.259Z,20.52
2018-05-08T08:36:58.173Z,20.50
2018-05-08T08:38:51.050Z,20.39
2018-05-08T08:39:50.918Z,20.52
2018-05-08T08:41:43.760Z,20.67
2018-05-08T08:42:43.664Z,20.61
2018-05-08T08:44:36.522Z,20.67
2018-05-08T08:45:36.458Z,20.64
2018-05-08T08:47:29.372Z,20.93
2018-05-08T08:48:29.176Z,20.97
2018-05-08T08:50:22.029Z,21.05
2018-05-08T08:51:21.924Z,21.14
2018-05-08T08:53:14.783Z,21.13
2018-05-08T08:54:14.661Z,21.05
2018-05-08T08:56:07.980Z,21.04
2018-05-08T08:57:07.824Z,21.08
2018-05-08T08:59:00.710Z,21.20
2018-05-08T09:00:00.591Z,21.26
2018-05-08T09:01:53.459Z,21.26
2018-05-08T09:02:53.317Z,21.28
2018-05-08T09:04:46.204Z,21.56
2018-05-08T09:05:46.100Z,21.62
2018-05-08T09:07:38.927Z,21.66
2018-05-08T09:08:38.853Z,21.63
2018-05-08T09:10:31.713Z,21.47
2018-05-08T09:11:31.572Z,21.40
2018-05-08T09:13:24.559Z,21.40
2018-05-08T09:14:24.323Z,21.55
2018-05-08T09:16:17.177Z,21.71
2018-05-08T09:17:17.071Z,21.77
2018-05-08T09:19:09.917Z,21.67
2018-05-08T09:20:09.864Z,21.82
2018-05-08T09:22:02.676Z,22.01
2018-05-08T09:23:02.602Z,22.22
2018-05-08T09:24:55.431Z,22.41
2018-05-08T09:25:55.319Z,22.46
2018-05-08T09:27:48.222Z,22.23
2018-05-08T09:28:48.080Z,22.30
2018-05-08T09:30:40.908Z,22.43
2018-05-08T09:31:40.849Z,22.49
2018-05-08T09:33:33.686Z,22.49
2018-05-08T09:34:33.581Z,22.48
2018-05-08T09:36:26.471Z,22.43
2018-05-08T09:37:26.343Z,22.55
2018-05-08T09:39:20.309Z,22.66
2018-05-08T09:40:19.095Z,22.73
2018-05-08T09:42:11.933Z,22.86
2018-05-08T09:43:11.833Z,22.81
2018-05-08T09:45:04.657Z,22.78
2018-05-08T09:46:04.563Z,22.76
2018-05-08T09:47:57.427Z,22.73
2018-05-08T09:48:57.347Z,22.80
2018-05-08T09:50:50.283Z,22.83
2018-05-08T09:51:50.075Z,22.71
2018-05-08T09:53:42.942Z,22.67
2018-05-08T09:54:42.847Z,22.89
2018-05-08T09:56:35.659Z,23.03
2018-05-08T09:57:35.589Z,22.92
2018-05-08T09:59:28.431Z,22.98
2018-05-08T10:00:28.351Z,23.04
2018-05-08T10:02:21.209Z,23.23
2018-05-08T10:03:21.115Z,23.36
2018-05-08T10:05:14.440Z,23.23
2018-05-08T10:06:14.031Z,23.22
2018-05-08T10:08:06.665Z,23.29
2018-05-08T10:09:06.579Z,23.33
2018-05-08T10:10:59.645Z,23.55
2018-05-08T10:11:59.332Z,23.51
2018-05-08T10:13:52.799Z,23.81
2018-05-08T10:14:52.584Z,23.88
2018-05-08T10:16:45.466Z,24.10
2018-05-08T10:17:45.415Z,24.15
2018-05-08T10:19:38.183Z,23.94
2018-05-08T10:20:38.202Z,23.89
2018-05-08T10:22:31.439Z,23.89
2018-05-08T10:23:31.352Z,23.66
2018-05-08T10:25:24.395Z,23.56
2018-05-08T10:26:24.263Z,23.28
2018-05-08T10:28:16.964Z,23.34
2018-05-08T10:29:16.856Z,23.45
2018-05-08T10:31:09.729Z,23.76
2018-05-08T10:32:09.594Z,23.92
2018-05-08T10:34:02.480Z,24.25
2018-05-08T10:35:02.351Z,24.28
2018-05-08T10:36:55.722Z,24.31
2018-05-08T10:37:55.131Z,24.13
2018-05-08T10:39:47.976Z,23.69
2018-05-08T10:40:47.883Z,23.63
2018-05-08T10:42:40.820Z,23.64
2018-05-08T10:43:40.674Z,23.84
2018-05-08T10:45:33.679Z,24.15
2018-05-08T10:46:33.494Z,24.33
2018-05-08T10:48:26.376Z,24.56
2018-05-08T10:49:26.203Z,24.70
2018-05-08T10:51:19.036Z,24.66
2018-05-08T10:52:18.961Z,24.51
2018-05-08T10:54:11.800Z,24.18
2018-05-08T10:55:11.701Z,24.15
2018-05-08T10:57:04.700Z,24.15
2018-05-08T10:58:04.556Z,24.19
2018-05-08T10:59:57.402Z,24.04
2018-05-08T11:00:57.299Z,24.07
2018-05-08T11:02:50.151Z,24.31
2018-05-08T11:03:50.046Z,24.11
2018-05-08T11:05:42.877Z,24.03
2018-05-08T11:06:42.799Z,24.08
2018-05-08T11:08:35.648Z,24.33
2018-05-08T11:09:35.556Z,24.31
2018-05-08T11:11:28.382Z,24.53
2018-05-08T11:12:28.304Z,24.58
2018-05-08T11:14:21.154Z,24.97
2018-05-08T11:15:21.043Z,24.93
2018-05-08T11:17:13.913Z,24.85
2018-05-08T11:18:13.799Z,24.85
2018-05-08T11:20:06.646Z,24.97
2018-05-08T11:21:06.542Z,25.06
2018-05-08T11:22:59.380Z,24.93
2018-05-08T11:23:59.304Z,24.82
2018-05-08T11:25:52.245Z,24.70
2018-05-08T11:26:52.262Z,24.79
2018-05-08T11:28:44.979Z,24.99
2018-05-08T11:29:44.899Z,25.19
2018-05-08T11:31:37.777Z,25.38
2018-05-08T11:32:37.692Z,25.36
2018-05-08T11:34:30.477Z,25.45
2018-05-08T11:35:30.427Z,25.49
2018-05-08T11:37:23.264Z,25.75
2018-05-08T11:38:23.140Z,25.85
2018-05-08T11:40:16.507Z,25.55
2018-05-08T11:41:16.417Z,25.66
2018-05-08T11:43:09.269Z,25.73
2018-05-08T11:44:09.152Z,25.51
2018-05-08T11:46:01.994Z,25.46
2018-05-08T11:47:01.904Z,25.52
2018-05-08T11:48:54.766Z,25.63
2018-05-08T11:49:54.751Z,25.59
2018-05-08T11:51:47.501Z,25.59
2018-05-08T11:52:47.413Z,25.66
2018-05-08T11:54:40.346Z,25.70
2018-05-08T11:55:40.265Z,25.75
2018-05-08T11:57:33.087Z,25.89
2018-05-08T11:58:33.013Z,25.70
2018-05-08T12:00:25.846Z,25.38
2018-05-08T12:01:25.746Z,25.33
2018-05-08T12:03:19.213Z,25.70
2018-05-08T12:04:18.526Z,25.78
2018-05-08T12:06:11.373Z,25.90
2018-05-08T12:07:11.273Z,26.10
2018-05-08T12:09:04.084Z,25.81
2018-05-08T12:10:04.011Z,25.86
2018-05-08T12:11:56.860Z,25.88
2018-05-08T12:12:56.764Z,25.98
2018-05-08T12:14:49.680Z,26.08
2018-05-08T12:15:49.532Z,26.12
2018-05-08T12:17:42.891Z,26.24
2018-05-08T12:18:42.760Z,26.00
2018-05-08T12:20:35.611Z,26.03
2018-05-08T12:21:35.517Z,25.95
2018-05-08T12:23:28.340Z,25.55
2018-05-08T12:24:28.290Z,25.66
2018-05-08T12:26:21.131Z,25.92
2018-05-08T12:27:21.013Z,25.89
2018-05-08T12:29:13.867Z,25.74
2018-05-08T12:30:13.760Z,25.75
2018-05-08T12:32:06.609Z,26.15
2018-05-08T12:33:06.506Z,26.27
2018-05-08T12:34:59.363Z,26.27
2018-05-08T12:35:59.264Z,25.96
2018-05-08T12:37:52.108Z,25.92
2018-05-08T12:38:52.045Z,25.88
2018-05-08T12:40:44.858Z,25.98
2018-05-08T12:41:44.767Z,26.10
2018-05-08T12:43:37.645Z,26.31
2018-05-08T12:44:37.511Z,26.43
2018-05-08T12:46:30.362Z,26.19
2018-05-08T12:47:30.264Z,26.26
2018-05-08T12:49:23.105Z,26.24
2018-05-08T12:50:23.057Z,26.26
2018-05-08T12:52:15.863Z,26.68
2018-05-08T12:53:15.755Z,26.67
2018-05-08T12:55:08.706Z,26.64
2018-05-08T12:56:08.702Z,26.70
2018-05-08T12:58:01.455Z,26.56
2018-05-08T12:59:01.412Z,26.28
2018-05-08T13:00:54.205Z,26.07
2018-05-08T13:01:54.125Z,26.26
2018-05-08T13:03:46.936Z,26.43
2018-05-08T13:04:46.874Z,26.60
2018-05-08T13:06:39.709Z,26.89
2018-05-08T13:07:39.617Z,27.03
2018-05-08T13:09:32.503Z,26.97
2018-05-08T13:10:32.359Z,26.97
2018-05-08T13:12:25.194Z,26.97
2018-05-08T13:13:25.110Z,26.93
2018-05-08T13:15:17.958Z,26.86
2018-05-08T13:16:17.864Z,26.93
2018-05-08T13:18:10.819Z,27.22
2018-05-08T13:19:10.613Z,27.16
2018-05-08T13:21:03.460Z,27.04
2018-05-08T13:22:03.376Z,26.97
2018-05-08T13:23:56.192Z,26.83
2018-05-08T13:24:56.110Z,26.24
2018-05-08T13:26:48.959Z,25.38
2018-05-08T13:27:48.860Z,25.33
2018-05-08T13:29:41.718Z,26.01
2018-05-08T13:30:41.624Z,26.16
2018-05-08T13:32:34.445Z,26.64
2018-05-08T13:33:34.366Z,26.76
2018-05-08T13:35:27.203Z,27.03
2018-05-08T13:36:27.113Z,26.93
2018-05-08T13:38:19.958Z,26.80
2018-05-08T13:39:19.883Z,26.63
2018-05-08T13:41:12.683Z,26.51
2018-05-08T13:42:12.617Z,26.76
2018-05-08T13:44:05.463Z,26.76
2018-05-08T13:45:05.356Z,27.01
2018-05-08T13:46:58.185Z,27.04
2018-05-08T13:47:58.131Z,27.13
2018-05-08T13:49:50.950Z,27.49
2018-05-08T13:50:50.846Z,27.58
2018-05-08T13:52:43.800Z,27.49
2018-05-08T13:53:43.697Z,27.49
2018-05-08T13:55:36.546Z,27.50
2018-05-08T13:56:36.449Z,27.69
2018-05-08T13:58:29.318Z,27.68
2018-05-08T13:59:29.199Z,27.78
2018-05-08T14:01:22.047Z,27.90
2018-05-08T14:02:21.945Z,28.00
2018-05-08T14:04:14.900Z,27.94
2018-05-08T14:05:14.802Z,28.00
2018-05-08T14:07:07.669Z,28.15
2018-05-08T14:08:07.565Z,28.16
2018-05-08T14:10:00.441Z,28.16
2018-05-08T14:11:00.377Z,28.06
2018-05-08T14:12:53.236Z,27.49
2018-05-08T14:13:53.149Z,27.32
2018-05-08T14:15:46.032Z,26.68
2018-05-08T14:16:45.910Z,27.16
2018-05-08T14:18:38.755Z,27.61
2018-05-08T14:19:38.909Z,27.57
2018-05-08T14:21:31.598Z,27.49
2018-05-08T14:22:31.410Z,27.70
2018-05-08T14:24:24.340Z,27.58
2018-05-08T14:25:24.261Z,27.82
2018-05-08T14:27:17.114Z,27.45
2018-05-08T14:28:17.000Z,27.08
2018-05-08T14:30:09.848Z,26.78
2018-05-08T14:31:09.752Z,26.63
2018-05-08T14:33:02.593Z,27.01
2018-05-08T14:34:02.503Z,27.37
2018-05-08T14:35:55.405Z,27.66
2018-05-08T14:36:55.342Z,27.69
2018-05-08T14:38:48.200Z,28.13
2018-05-08T14:39:48.110Z,27.90
2018-05-08T14:41:40.939Z,28.16
2018-05-08T14:42:40.857Z,28.59
2018-05-08T14:44:33.720Z,28.80
2018-05-08T14:45:33.609Z,28.86
2018-05-08T14:47:26.489Z,29.04
2018-05-08T14:48:26.376Z,29.02
2018-05-08T14:50:20.320Z,28.91
2018-05-08T14:51:19.099Z,28.90
2018-05-08T14:53:11.970Z,29.17
2018-05-08T14:54:11.892Z,29.41
2018-05-08T14:56:04.703Z,29.44
2018-05-08T14:57:04.606Z,29.65
2018-05-08T14:58:57.509Z,30.02
2018-05-08T14:59:57.366Z,30.00
2018-05-08T15:01:50.199Z,30.14
2018-05-08T15:02:50.105Z,30.40
2018-05-08T15:04:42.937Z,30.13
2018-05-08T15:05:42.844Z,30.28
2018-05-08T15:07:35.711Z,30.24
2018-05-08T15:08:35.601Z,30.05
2018-05-08T15:10:28.501Z,30.56
2018-05-08T15:11:28.360Z,30.71
2018-05-08T15:13:21.179Z,31.26
2018-05-08T15:14:21.100Z,31.23
2018-05-08T15:16:13.954Z,31.11
2018-05-08T15:17:13.940Z,30.68
2018-05-08T15:19:07.727Z,30.93
2018-05-08T15:20:07.621Z,30.90
2018-05-08T15:22:00.570Z,30.95
2018-05-08T15:23:00.373Z,31.15
2018-05-08T15:24:53.842Z,31.49
2018-05-08T15:25:53.641Z,31.70
2018-05-08T15:27:46.469Z,31.75
2018-05-08T15:28:46.418Z,31.74
2018-05-08T15:30:39.387Z,31.78
2018-05-08T15:31:39.394Z,31.91
2018-05-08T15:33:32.079Z,32.05
2018-05-08T15:34:31.985Z,31.89
2018-05-08T15:36:25.059Z,31.60
2018-05-08T15:37:24.750Z,31.81
2018-05-08T15:39:17.627Z,32.36
2018-05-08T15:40:17.485Z,32.63
2018-05-08T15:42:10.362Z,31.45
2018-05-08T15:43:10.233Z,31.75
2018-05-08T15:45:03.077Z,31.91
2018-05-08T15:46:02.981Z,32.06
2018-05-08T15:47:55.859Z,32.20
2018-05-08T15:48:55.758Z,32.69
2018-05-08T15:50:48.603Z,33.03
2018-05-08T15:51:48.482Z,33.29
2018-05-08T15:53:41.390Z,33.32
2018-05-08T15:54:41.296Z,33.20
2018-05-08T15:56:34.081Z,32.92
2018-05-08T15:57:33.981Z,32.94
2018-05-08T15:59:26.847Z,32.94
2018-05-08T16:00:26.726Z,32.87
2018-05-08T16:02:19.562Z,32.90
2018-05-08T16:03:19.479Z,32.64
2018-05-08T16:05:12.671Z,32.76
2018-05-08T16:06:12.567Z,32.80
2018-05-08T16:08:05.098Z,32.77
2018-05-08T16:09:04.978Z,32.87
2018-05-08T16:10:57.859Z,33.20
2018-05-08T16:11:57.732Z,33.32
2018-05-08T16:13:50.569Z,32.87
2018-05-08T16:14:50.492Z,32.82
2018-05-08T16:16:43.454Z,32.87
2018-05-08T16:17:43.408Z,32.95
2018-05-08T16:19:36.180Z,32.68
2018-05-08T16:20:36.087Z,32.64
2018-05-08T16:22:28.963Z,32.95
2018-05-08T16:23:28.837Z,33.16
2018-05-08T16:25:22.519Z,32.94
2018-05-08T16:26:22.427Z,32.91
2018-05-08T16:28:16.925Z,33.03
2018-05-08T16:29:15.212Z,33.17
2018-05-08T16:31:09.237Z,32.90
2018-05-08T16:32:07.927Z,32.99
2018-05-08T16:34:01.637Z,32.92
2018-05-08T16:35:02.057Z,32.98
2018-05-08T16:36:54.871Z,33.33
2018-05-08T16:37:54.770Z,33.27
2018-05-08T16:39:48.727Z,32.85
2018-05-08T16:40:48.019Z,33.03
2018-05-08T16:42:41.274Z,33.13
2018-05-08T16:43:43.051Z,32.72
2018-05-08T16:45:34.503Z,32.90
2018-05-08T16:46:33.923Z,33.01
2018-05-08T16:48:29.282Z,32.97
2018-05-08T16:49:28.698Z,33.22
2018-05-08T16:51:21.667Z,32.70
2018-05-08T16:52:21.374Z,32.75
2018-05-08T16:54:14.292Z,32.75
2018-05-08T16:55:14.144Z,32.64
2018-05-08T16:57:07.030Z,32.61
2018-05-08T16:58:06.907Z,32.58
2018-05-08T16:59:59.697Z,32.64
2018-05-08T17:00:59.605Z,32.69
2018-05-08T17:02:52.516Z,32.76
2018-05-08T17:03:52.351Z,32.35
2018-05-08T17:05:45.195Z,32.43
2018-05-08T17:06:45.122Z,32.38
2018-05-08T17:08:37.962Z,32.57
2018-05-08T17:09:37.904Z,32.41
2018-05-08T17:11:30.689Z,32.31
2018-05-08T17:12:30.598Z,32.04
2018-05-08T17:14:23.671Z,31.59
2018-05-08T17:15:23.581Z,31.74
2018-05-08T17:17:16.403Z,31.86
2018-05-08T17:18:16.314Z,32.05
2018-05-08T17:20:09.158Z,32.14
2018-05-08T17:21:09.061Z,32.31
2018-05-08T17:23:01.889Z,32.31
2018-05-08T17:24:01.805Z,31.86
2018-05-08T17:25:54.660Z,31.78
2018-05-08T17:26:54.584Z,31.89
2018-05-08T17:28:47.399Z,31.95
2018-05-08T17:29:47.304Z,31.89
2018-05-08T17:31:40.227Z,31.79
2018-05-08T17:32:40.124Z,31.79
2018-05-08T17:34:32.888Z,31.48
2018-05-08T17:35:32.805Z,31.56
2018-05-08T17:37:25.779Z,31.30
2018-05-08T17:38:25.678Z,31.39
2018-05-08T17:40:18.533Z,31.46
2018-05-08T17:41:18.471Z,31.19
2018-05-08T17:43:11.281Z,31.11
2018-05-08T17:44:11.159Z,31.22
2018-05-08T17:46:04.539Z,31.22
2018-05-08T17:47:04.431Z,30.97
2018-05-08T17:48:57.771Z,30.97
2018-05-08T17:49:57.691Z,30.70
2018-05-08T17:51:50.512Z,30.36
2018-05-08T17:52:50.439Z,30.13
2018-05-08T17:54:43.289Z,30.24
2018-05-08T17:55:43.181Z,30.22
2018-05-08T17:57:36.123Z,29.54
2018-05-08T17:58:35.927Z,29.02
2018-05-08T18:00:28.820Z,27.97
2018-05-08T18:01:28.723Z,27.53
2018-05-08T18:03:21.518Z,26.68
2018-05-08T18:04:21.518Z,26.42
2018-05-08T18:06:14.277Z,25.90
2018-05-08T18:07:14.187Z,25.68
2018-05-08T18:09:07.010Z,25.28
2018-05-08T18:10:06.918Z,25.33
2018-05-08T18:11:59.831Z,25.11
2018-05-08T18:12:59.705Z,24.96
2018-05-08T18:14:52.604Z,24.70
2018-05-08T18:15:52.522Z,24.52
2018-05-08T18:17:45.406Z,24.28
2018-05-08T18:18:45.287Z,24.04
2018-05-08T18:20:38.095Z,23.88
2018-05-08T18:21:38.036Z,23.89
2018-05-08T18:23:30.947Z,23.79
2018-05-08T18:24:30.792Z,23.76
2018-05-08T18:26:23.618Z,23.64
2018-05-08T18:27:23.593Z,23.49
2018-05-08T18:29:16.386Z,23.49
2018-05-08T18:30:16.268Z,23.41
2018-05-08T18:32:09.095Z,23.21